createdAt,value
2022-09-27T00:01:08.791Z,9.27
2022-09-27T00:03:35.501Z,8.80
2022-09-27T00:06:26.536Z,11.73
2022-09-27T00:08:53.377Z,13.23
2022-09-27T00:11:36.953Z,9.63
2022-09-27T00:14:05.823Z,12.13
2022-09-27T00:16:37.514Z,12.13
2022-09-27T00:19:17.993Z,8.00
2022-09-27T00:21:46.291Z,10.50
2022-09-27T00:24:21.320Z,10.97
2022-09-27T00:26:49.162Z,15.20
2022-09-27T00:29:18.259Z,8.27
2022-09-27T00:31:45.501Z,10.20
2022-09-27T00:34:23.655Z,9.43
2022-09-27T00:36:51.114Z,6.97
2022-09-27T00:39:18.824Z,9.57
2022-09-27T00:41:45.701Z,10.43
2022-09-27T00:46:47.707Z,6.87
2022-09-27T00:49:34.849Z,8.53
2022-09-27T00:52:14.100Z,9.00
2022-09-27T00:54:46.321Z,9.93
2022-09-27T00:57:12.786Z,10.70
2022-09-27T00:59:51.069Z,9.03
2022-09-27T01:02:18.336Z,12.13
2022-09-27T01:04:46.863Z,8.20
2022-09-27T01:07:13.794Z,10.80
2022-09-27T01:09:40.637Z,6.20
2022-09-27T01:13:23.002Z,9.40
2022-09-27T01:17:08.811Z,8.70
2022-09-27T01:25:55.416Z,9.67
2022-09-27T01:34:03.296Z,8.93
2022-09-27T01:40:37.388Z,5.67
2022-09-27T01:43:21.842Z,6.90
2022-09-27T01:46:31.085Z,5.97
2022-09-27T01:49:05.005Z,8.17
2022-09-27T01:51:43.718Z,11.00
2022-09-27T01:54:16.712Z,6.30
2022-09-27T01:56:55.513Z,4.80
2022-09-27T01:59:34.430Z,7.67
2022-09-27T02:02:08.416Z,5.63
2022-09-27T02:04:39.392Z,7.87
2022-09-27T02:07:22.860Z,10.03
2022-09-27T02:10:22.517Z,10.50
2022-09-27T02:14:31.383Z,12.13
2022-09-27T02:17:39.798Z,11.70
2022-09-27T02:20:37.687Z,4.93
2022-09-27T02:23:56.140Z,7.33
2022-09-27T02:26:40.950Z,5.00
2022-09-27T02:29:15.638Z,8.87
2022-09-27T02:31:42.141Z,7.80
2022-09-27T02:34:23.271Z,6.43
2022-09-27T02:36:52.619Z,7.80
2022-09-27T02:39:19.485Z,6.57
2022-09-27T02:41:45.954Z,9.93
2022-09-27T02:44:16.500Z,8.97
2022-09-27T02:49:03.815Z,8.50
2022-09-27T02:54:23.317Z,4.93
2022-09-27T02:57:27.325Z,9.83
2022-09-27T03:00:13.382Z,11.23
2022-09-27T03:05:42.683Z,9.87
2022-09-27T03:08:11.752Z,9.87
2022-09-27T03:10:38.227Z,7.67
2022-09-27T03:13:05.666Z,9.80
2022-09-27T03:15:32.172Z,10.97
2022-09-27T03:17:58.815Z,6.67
2022-09-27T03:20:25.288Z,7.93
2022-09-27T03:22:51.774Z,7.00
2022-09-27T03:25:19.382Z,5.50
2022-09-27T03:27:45.840Z,5.10
2022-09-27T03:30:14.134Z,9.77
2022-09-27T03:32:44.456Z,8.00
2022-09-27T03:35:12.558Z,8.70
2022-09-27T03:37:40.384Z,7.57
2022-09-27T03:40:08.018Z,11.13
2022-09-27T03:42:34.490Z,6.37
2022-09-27T03:45:01.109Z,15.37
2022-09-27T03:47:27.587Z,8.30
2022-09-27T03:49:54.050Z,11.97
2022-09-27T03:52:20.518Z,17.77
2022-09-27T03:54:47.326Z,16.43
2022-09-27T03:57:14.226Z,12.57
2022-09-27T03:59:40.705Z,9.03
2022-09-27T04:02:07.203Z,5.20
2022-09-27T04:04:33.722Z,6.93
2022-09-27T04:07:00.217Z,10.17
2022-09-27T04:09:26.679Z,9.97
2022-09-27T04:11:53.154Z,7.47
2022-09-27T04:14:19.659Z,9.30
2022-09-27T04:16:46.196Z,6.40
2022-09-27T04:19:12.859Z,6.00
2022-09-27T04:21:39.361Z,9.13
2022-09-27T04:24:05.922Z,6.43
2022-09-27T04:26:32.459Z,9.47
2022-09-27T04:28:59.061Z,6.90
2022-09-27T04:31:25.608Z,5.20
2022-09-27T04:33:53.143Z,8.57
2022-09-27T04:36:25.909Z,8.87
2022-09-27T04:38:57.970Z,6.73
2022-09-27T04:41:25.364Z,4.37
2022-09-27T04:43:56.726Z,5.43
2022-09-27T04:46:29.058Z,6.80
2022-09-27T04:48:55.546Z,7.27
2022-09-27T04:51:22.040Z,9.37
2022-09-27T04:53:48.488Z,7.23
2022-09-27T04:56:15.269Z,13.97
2022-09-27T04:58:41.779Z,7.53
2022-09-27T05:01:08.896Z,5.23
2022-09-27T05:03:35.837Z,5.73
2022-09-27T05:06:02.327Z,8.67
2022-09-27T05:08:28.853Z,9.80
2022-09-27T05:10:55.418Z,8.53
2022-09-27T05:13:22.181Z,11.73
2022-09-27T05:15:48.658Z,11.00
2022-09-27T05:18:15.111Z,13.13
2022-09-27T05:20:41.875Z,14.00
2022-09-27T05:23:08.356Z,14.30
2022-09-27T05:25:34.807Z,9.13
2022-09-27T05:28:01.710Z,13.00
2022-09-27T05:30:28.242Z,8.17
2022-09-27T05:32:54.887Z,7.30
2022-09-27T05:35:21.973Z,7.20
2022-09-27T05:37:59.499Z,7.77
2022-09-27T05:40:40.750Z,8.83
2022-09-27T05:43:08.026Z,7.57
2022-09-27T05:45:34.493Z,7.80
2022-09-27T05:48:01.247Z,9.03
2022-09-27T05:50:27.853Z,9.27
2022-09-27T05:52:54.878Z,8.60
2022-09-27T05:55:21.405Z,10.77
2022-09-27T05:58:00.143Z,8.80
2022-09-27T06:00:27.988Z,6.00
2022-09-27T06:03:04.037Z,5.13
2022-09-27T06:05:35.820Z,5.37
2022-09-27T06:08:09.843Z,9.53
2022-09-27T06:10:37.622Z,9.10
2022-09-27T06:13:11.453Z,10.30
2022-09-27T06:15:41.385Z,7.53
2022-09-27T06:18:15.430Z,6.47
2022-09-27T06:20:42.406Z,6.73
2022-09-27T06:23:17.571Z,5.20
2022-09-27T06:25:46.123Z,6.23
2022-09-27T06:28:13.414Z,9.63
2022-09-27T06:30:46.279Z,7.60
2022-09-27T06:33:19.093Z,11.53
2022-09-27T06:35:48.486Z,8.40
2022-09-27T06:38:17.819Z,17.10
2022-09-27T06:40:45.381Z,18.37
2022-09-27T06:43:16.200Z,10.60
2022-09-27T06:45:43.457Z,10.53
2022-09-27T06:48:12.982Z,12.63
2022-09-27T06:50:43.369Z,14.87
2022-09-27T06:53:12.277Z,12.77
2022-09-27T06:55:39.389Z,14.13
2022-09-27T06:58:24.748Z,20.87
2022-09-27T07:00:53.348Z,16.73
2022-09-27T07:03:27.525Z,14.83
2022-09-27T07:06:04.146Z,11.80
2022-09-27T07:08:31.343Z,13.67
2022-09-27T07:11:06.813Z,11.57
2022-09-27T07:13:36.449Z,9.93
2022-09-27T07:16:03.659Z,14.60
2022-09-27T07:18:30.223Z,14.43
2022-09-27T07:21:00.543Z,13.47
2022-09-27T07:23:27.443Z,15.27
2022-09-27T07:25:54.149Z,10.23
2022-09-27T07:28:22.234Z,10.90
2022-09-27T07:30:54.022Z,11.73
2022-09-27T07:33:20.563Z,5.63
2022-09-27T07:35:47.011Z,12.57
2022-09-27T07:38:13.519Z,7.47
2022-09-27T07:40:41.216Z,7.27
2022-09-27T07:43:08.706Z,11.83
2022-09-27T07:45:36.890Z,7.73
2022-09-27T07:48:14.466Z,7.90
2022-09-27T07:50:40.937Z,5.80
2022-09-27T07:53:07.511Z,10.23
2022-09-27T07:55:34.009Z,6.20
2022-09-27T07:58:10.182Z,6.10
2022-09-27T08:00:38.894Z,6.23
2022-09-27T08:03:16.089Z,6.87
2022-09-27T08:05:46.426Z,8.05
2022-09-27T08:08:14.669Z,9.55
2022-09-27T08:10:43.633Z,9.65
2022-09-27T08:13:10.910Z,7.13
2022-09-27T08:15:40.478Z,9.93
2022-09-27T08:18:08.854Z,8.30
2022-09-27T08:20:35.526Z,8.02
2022-09-27T08:23:03.542Z,10.45
2022-09-27T08:25:30.446Z,12.00
2022-09-27T08:27:57.946Z,10.55
2022-09-27T08:30:25.775Z,11.43
2022-09-27T08:33:01.817Z,14.70
2022-09-27T08:35:30.703Z,16.50
2022-09-27T08:37:59.835Z,12.75
2022-09-27T08:40:57.037Z,8.20
2022-09-27T08:44:10.905Z,7.80
2022-09-27T08:49:02.534Z,10.32
2022-09-27T08:51:32.212Z,8.60
2022-09-27T08:54:24.661Z,7.03
2022-09-27T08:56:59.899Z,8.50
2022-09-27T08:59:33.719Z,5.75
2022-09-27T09:02:00.323Z,7.55
2022-09-27T09:04:37.192Z,7.33
2022-09-27T09:12:29.257Z,5.15
2022-09-27T09:17:36.478Z,11.77
2022-09-27T09:20:57.752Z,8.43
2022-09-27T09:24:56.463Z,9.10
2022-09-27T09:27:46.689Z,8.57
2022-09-27T09:30:29.827Z,6.40
2022-09-27T09:33:34.578Z,9.07
2022-09-27T09:39:19.441Z,11.47
2022-09-27T09:42:24.272Z,7.93
2022-09-27T09:45:15.397Z,9.80
2022-09-27T09:48:01.153Z,8.63
2022-09-27T09:50:35.016Z,8.27
2022-09-27T09:54:26.583Z,10.80
2022-09-27T09:57:08.287Z,9.00
2022-09-27T09:59:49.015Z,9.87
2022-09-27T10:02:37.764Z,7.87
2022-09-27T10:05:08.013Z,11.33
2022-09-27T10:07:38.509Z,7.83
2022-09-27T10:10:07.600Z,7.50
2022-09-27T10:12:36.032Z,1.80
2022-09-27T10:15:05.681Z,7.22
2022-09-27T10:17:41.705Z,3.92
2022-09-27T10:20:26.197Z,2.15
2022-09-27T10:23:06.237Z,3.63
2022-09-27T10:26:00.548Z,4.53
2022-09-27T10:28:45.243Z,2.80
2022-09-27T10:31:17.358Z,6.40
2022-09-27T10:34:01.701Z,5.47
2022-09-27T10:36:34.615Z,5.97
2022-09-27T10:39:06.282Z,3.30
2022-09-27T10:41:40.993Z,4.77
2022-09-27T10:44:28.580Z,5.62
2022-09-27T10:47:07.320Z,4.05
2022-09-27T10:49:44.331Z,4.62
2022-09-27T10:52:23.422Z,5.85
2022-09-27T10:55:08.359Z,3.67
2022-09-27T10:57:34.858Z,6.45
2022-09-27T11:00:23.171Z,2.55
2022-09-27T11:03:07.032Z,2.25
2022-09-27T11:05:38.732Z,2.55
2022-09-27T11:08:33.057Z,4.75
2022-09-27T11:11:25.701Z,6.53
2022-09-27T11:14:24.741Z,5.37
2022-09-27T11:17:38.750Z,2.97
2022-09-27T11:20:42.699Z,4.70
2022-09-27T11:25:43.274Z,6.93
2022-09-27T11:28:49.631Z,6.75
2022-09-27T11:31:48.809Z,4.15
2022-09-27T11:37:37.814Z,7.87
2022-09-27T11:43:15.961Z,4.03
2022-09-27T11:46:17.877Z,4.57
2022-09-27T11:49:13.730Z,3.47
2022-09-27T11:55:13.667Z,5.95
2022-09-27T11:58:08.448Z,4.32
2022-09-27T12:03:25.139Z,3.92
2022-09-27T12:06:15.633Z,4.35
2022-09-27T12:09:13.679Z,5.60
2022-09-27T12:12:36.167Z,3.95
2022-09-27T12:15:13.850Z,3.65
2022-09-27T12:17:47.900Z,3.35
2022-09-27T12:20:39.767Z,2.70
2022-09-27T12:24:15.014Z,3.33
2022-09-27T12:26:44.650Z,4.40
2022-09-27T12:29:33.833Z,6.72
2022-09-27T12:33:46.815Z,3.65
2022-09-27T12:36:19.669Z,2.35
2022-09-27T12:39:12.644Z,2.90
2022-09-27T12:41:47.371Z,9.27
2022-09-27T12:44:14.212Z,2.67
2022-09-27T12:47:37.423Z,2.58
2022-09-27T12:50:44.252Z,3.35
2022-09-27T12:53:22.832Z,2.17
2022-09-27T12:57:37.174Z,3.55
2022-09-27T13:00:23.081Z,4.62
2022-09-27T13:05:51.915Z,3.13
2022-09-27T13:11:29.695Z,4.13
2022-09-27T13:14:00.369Z,3.43
2022-09-27T13:16:28.021Z,2.87
2022-09-27T13:19:02.906Z,2.22
2022-09-27T13:23:54.079Z,2.30
2022-09-27T13:26:44.315Z,3.37
2022-09-27T13:29:29.998Z,3.03
2022-09-27T13:32:15.640Z,2.47
2022-09-27T13:34:47.547Z,3.12
2022-09-27T13:37:47.348Z,1.83
2022-09-27T13:40:40.037Z,2.70
2022-09-27T13:43:41.188Z,2.45
2022-09-27T13:46:18.116Z,2.22
2022-09-27T13:49:22.809Z,2.77
2022-09-27T13:52:00.037Z,2.60
2022-09-27T13:54:56.970Z,2.75
2022-09-27T13:58:09.305Z,1.60
2022-09-27T14:00:44.771Z,2.10
2022-09-27T14:03:52.993Z,2.08
2022-09-27T14:06:41.419Z,2.60
2022-09-27T14:09:39.532Z,3.50
2022-09-27T14:12:18.354Z,2.03
2022-09-27T14:14:48.744Z,2.60
2022-09-27T14:17:16.565Z,2.33
2022-09-27T14:19:45.236Z,3.42
2022-09-27T14:22:18.735Z,5.28
2022-09-27T14:24:49.674Z,11.48
2022-09-27T14:27:35.379Z,4.17
2022-09-27T14:30:16.685Z,7.07
2022-09-27T14:32:55.214Z,6.32
2022-09-27T14:35:49.721Z,4.12
2022-09-27T14:38:37.195Z,5.87
2022-09-27T14:41:07.685Z,6.97
2022-09-27T14:43:41.158Z,4.00
2022-09-27T14:46:22.922Z,8.20
2022-09-27T14:48:50.193Z,6.33
2022-09-27T14:51:25.381Z,5.23
2022-09-27T14:53:57.690Z,4.53
2022-09-27T14:56:33.206Z,4.12
2022-09-27T14:59:13.692Z,5.70
2022-09-27T15:01:51.517Z,4.93
2022-09-27T15:04:21.332Z,4.33
2022-09-27T15:06:49.032Z,9.03
2022-09-27T15:09:17.955Z,4.30
2022-09-27T15:12:07.805Z,3.97
2022-09-27T15:14:36.759Z,5.07
2022-09-27T15:17:05.405Z,6.43
2022-09-27T15:19:33.769Z,6.00
2022-09-27T15:22:44.105Z,7.62
2022-09-27T15:25:41.641Z,6.63
2022-09-27T15:28:27.162Z,5.87
2022-09-27T15:30:57.253Z,6.83
2022-09-27T15:33:33.413Z,5.60
2022-09-27T15:36:05.275Z,6.40
2022-09-27T15:38:43.243Z,8.60
2022-09-27T15:41:16.667Z,11.40
2022-09-27T15:43:49.249Z,3.73
2022-09-27T15:46:38.017Z,5.80
2022-09-27T15:49:32.689Z,4.40
2022-09-27T15:52:02.210Z,5.07
2022-09-27T15:54:32.513Z,10.10
2022-09-27T15:57:04.354Z,5.17
2022-09-27T15:59:35.083Z,5.40
2022-09-27T16:02:13.627Z,6.57
2022-09-27T16:04:40.159Z,7.40
2022-09-27T16:07:08.457Z,10.27
2022-09-27T16:09:34.993Z,6.07
2022-09-27T16:12:01.562Z,6.90
2022-09-27T16:14:28.039Z,7.03
2022-09-27T16:17:01.017Z,5.20
2022-09-27T16:19:27.476Z,11.80
2022-09-27T16:21:53.952Z,10.67
2022-09-27T16:24:20.443Z,9.30
2022-09-27T16:26:47.064Z,9.10
2022-09-27T16:29:15.263Z,10.97
2022-09-27T16:31:42.074Z,8.40
2022-09-27T16:34:10.418Z,12.67
2022-09-27T16:36:38.168Z,14.90
2022-09-27T16:39:09.867Z,13.68
2022-09-27T16:41:36.429Z,13.57
2022-09-27T16:44:07.943Z,17.33
2022-09-27T16:46:34.875Z,14.47
2022-09-27T16:49:01.710Z,14.33
2022-09-27T16:51:46.503Z,10.23
2022-09-27T16:54:14.794Z,8.73
2022-09-27T16:56:41.479Z,10.63
2022-09-27T16:59:08.040Z,9.17
2022-09-27T17:01:34.908Z,13.03
2022-09-27T17:04:01.674Z,25.87
2022-09-27T17:06:28.216Z,19.47
2022-09-27T17:08:55.351Z,19.40
2022-09-27T17:11:22.363Z,9.40
2022-09-27T17:13:53.662Z,9.37
2022-09-27T17:16:20.292Z,10.03
2022-09-27T17:18:47.126Z,9.57
2022-09-27T17:21:14.142Z,8.03
2022-09-27T17:23:40.622Z,10.67
2022-09-27T17:26:23.212Z,25.03
2022-09-27T17:28:54.228Z,16.47
2022-09-27T17:31:20.760Z,19.50
2022-09-27T17:33:52.403Z,16.50
2022-09-27T17:36:26.226Z,11.77
2022-09-27T17:38:53.141Z,11.90
2022-09-27T17:41:23.745Z,14.17
2022-09-27T17:43:58.077Z,15.17
2022-09-27T17:46:28.582Z,15.00
2022-09-27T17:49:13.809Z,15.53
2022-09-27T17:51:42.608Z,15.30
2022-09-27T17:54:10.361Z,12.40
2022-09-27T17:56:42.447Z,13.73
2022-09-27T17:59:11.628Z,15.87
2022-09-27T18:01:39.161Z,23.80
2022-09-27T18:04:11.105Z,17.63
2022-09-27T18:06:43.753Z,18.67
2022-09-27T18:09:13.397Z,11.27
2022-09-27T18:11:40.128Z,7.87
2022-09-27T18:14:07.079Z,11.23
2022-09-27T18:16:42.125Z,12.00
2022-09-27T18:19:13.434Z,3.27
2022-09-27T18:21:39.894Z,7.77
2022-09-27T18:24:07.521Z,6.37
2022-09-27T18:26:38.933Z,8.70
2022-09-27T18:29:11.252Z,11.23
2022-09-27T18:31:39.264Z,10.67
2022-09-27T18:34:06.307Z,13.10
2022-09-27T18:36:32.923Z,13.60
2022-09-27T18:39:02.697Z,13.47
2022-09-27T18:41:31.927Z,14.40
2022-09-27T18:44:04.572Z,7.83
2022-09-27T18:46:36.477Z,9.43
2022-09-27T18:49:10.394Z,8.13
2022-09-27T18:51:40.355Z,10.97
2022-09-27T18:54:14.081Z,3.63
2022-09-27T18:56:40.786Z,3.93
2022-09-27T18:59:09.569Z,6.00
2022-09-27T19:01:44.244Z,7.90
2022-09-27T19:04:14.558Z,11.20
2022-09-27T19:06:42.124Z,15.33
2022-09-27T19:09:11.007Z,6.23
2022-09-27T19:11:38.178Z,8.47
2022-09-27T19:14:04.922Z,6.70
2022-09-27T19:16:31.885Z,4.73
2022-09-27T19:18:58.423Z,10.17
2022-09-27T19:21:28.594Z,5.00
2022-09-27T19:23:55.582Z,6.63
2022-09-27T19:26:25.782Z,5.50
2022-09-27T19:28:52.694Z,9.70
2022-09-27T19:31:25.649Z,7.83
2022-09-27T19:33:59.968Z,9.90
2022-09-27T19:36:28.046Z,5.10
2022-09-27T19:38:57.479Z,6.63
2022-09-27T19:41:24.019Z,3.37
2022-09-27T19:46:26.618Z,8.57
2022-09-27T19:48:55.305Z,8.33
2022-09-27T19:51:27.398Z,7.37
2022-09-27T19:53:54.794Z,5.83
2022-09-27T19:56:22.568Z,5.60
2022-09-27T19:58:49.565Z,6.00
2022-09-27T20:01:19.556Z,9.17
2022-09-27T20:03:47.039Z,7.03
2022-09-27T20:06:16.309Z,5.87
2022-09-27T20:08:44.270Z,7.20
2022-09-27T20:11:17.433Z,3.30
2022-09-27T20:13:44.353Z,4.27
2022-09-27T20:16:14.892Z,7.93
2022-09-27T20:18:45.375Z,15.40
2022-09-27T20:21:13.524Z,7.80
2022-09-27T20:23:40.278Z,2.80
2022-09-27T20:26:13.813Z,4.53
2022-09-27T20:28:43.202Z,4.80
2022-09-27T20:31:12.582Z,2.37
2022-09-27T20:33:41.744Z,7.97
2022-09-27T20:36:38.745Z,1.47
2022-09-27T20:39:12.125Z,4.40
2022-09-27T20:41:42.572Z,3.83
2022-09-27T20:44:12.593Z,4.90
2022-09-27T20:46:42.644Z,7.10
2022-09-27T20:49:15.266Z,2.30
2022-09-27T20:51:44.039Z,3.90
2022-09-27T20:54:12.376Z,8.97
2022-09-27T20:56:48.242Z,1.47
2022-09-27T20:59:22.854Z,2.37
2022-09-27T21:01:51.879Z,2.77
2022-09-27T21:04:20.819Z,2.57
2022-09-27T21:06:47.501Z,2.07
2022-09-27T21:09:18.045Z,2.07
2022-09-27T21:11:50.876Z,1.77
2022-09-27T21:14:17.523Z,7.17
2022-09-27T21:16:44.343Z,5.03
2022-09-27T21:19:10.895Z,4.73
2022-09-27T21:21:37.487Z,3.47
2022-09-27T21:24:04.489Z,2.03
2022-09-27T21:26:34.146Z,3.63
2022-09-27T21:29:06.003Z,5.27
2022-09-27T21:31:33.260Z,2.23
2022-09-27T21:34:02.720Z,3.27
2022-09-27T21:36:32.885Z,2.03
2022-09-27T21:38:59.904Z,4.27
2022-09-27T21:41:27.331Z,0.97
2022-09-27T21:43:54.890Z,1.10
2022-09-27T21:46:27.821Z,3.80
2022-09-27T21:49:01.221Z,1.53
2022-09-27T21:51:36.011Z,1.30
2022-09-27T21:54:06.568Z,2.20
2022-09-27T21:56:37.888Z,2.93
2022-09-27T21:59:09.418Z,3.53
2022-09-27T22:01:36.114Z,4.10
2022-09-27T22:04:05.895Z,2.37
2022-09-27T22:06:35.929Z,3.07
2022-09-27T22:09:06.451Z,2.03
2022-09-27T22:11:46.686Z,2.80
2022-09-27T22:14:15.999Z,1.63
2022-09-27T22:16:42.466Z,5.17
2022-09-27T22:19:12.796Z,7.43
2022-09-27T22:21:40.330Z,32.13
2022-09-27T22:24:17.902Z,7.60
2022-09-27T22:26:51.061Z,3.67
2022-09-27T22:29:18.011Z,3.57
2022-09-27T22:31:44.655Z,1.43
2022-09-27T22:34:17.528Z,4.60
2022-09-27T22:36:44.887Z,1.90
2022-09-27T22:39:11.626Z,2.73
2022-09-27T22:41:38.089Z,5.63
2022-09-27T22:44:04.646Z,1.23
2022-09-27T22:46:31.135Z,1.50
2022-09-27T22:48:57.783Z,3.37
2022-09-27T22:51:24.233Z,5.70
2022-09-27T22:53:50.696Z,0.93
2022-09-27T22:56:20.263Z,0.63
2022-09-27T22:58:48.672Z,0.57
2022-09-27T23:01:19.515Z,1.43
2022-09-27T23:03:48.416Z,0.80
2022-09-27T23:06:17.453Z,5.23
2022-09-27T23:08:44.576Z,2.17
2022-09-27T23:11:19.875Z,0.70
2022-09-27T23:13:48.521Z,1.47
2022-09-27T23:16:24.193Z,1.10
2022-09-27T23:18:56.066Z,3.53
2022-09-27T23:21:25.045Z,2.43
2022-09-27T23:23:54.370Z,1.83
2022-09-27T23:26:26.019Z,4.60
2022-09-27T23:29:00.920Z,3.17
2022-09-27T23:31:30.441Z,3.80
2022-09-27T23:34:00.853Z,0.83
2022-09-27T23:36:27.608Z,6.43
2022-09-27T23:38:57.910Z,1.50
2022-09-27T23:41:24.469Z,4.27
2022-09-27T23:43:52.511Z,1.23
2022-09-27T23:46:19.421Z,1.63
2022-09-27T23:48:45.990Z,0.70
2022-09-27T23:51:13.012Z,2.77
2022-09-27T23:53:39.900Z,5.03
2022-09-27T23:56:15.775Z,6.57
2022-09-27T23:58:45.084Z,2.17
